sensor_id;sensor_type;location;lat;lon;timestamp;P1;durP1;ratioP1;P2;durP2;ratioP2
74503;SDS011;62988;55.776;37.544;2022-08-19T00:00:33;5.80;;;3.20;;
74503;SDS011;62988;55.776;37.544;2022-08-19T00:02:59;9.50;;;3.08;;
74503;SDS011;62988;55.776;37.544;2022-08-19T00:05:25;11.85;;;4.05;;
74503;SDS011;62988;55.776;37.544;2022-08-19T00:07:50;10.88;;;3.83;;
74503;SDS011;62988;55.776;37.544;2022-08-19T00:10:16;11.27;;;4.03;;
74503;SDS011;62988;55.776;37.544;2022-08-19T00:12:44;7.40;;;4.00;;
74503;SDS011;62988;55.776;37.544;2022-08-19T00:15:10;10.50;;;3.88;;
74503;SDS011;62988;55.776;37.544;2022-08-19T00:17:39;9.05;;;4.63;;
74503;SDS011;62988;55.776;37.544;2022-08-19T00:20:06;8.93;;;4.18;;
74503;SDS011;62988;55.776;37.544;2022-08-19T00:22:33;9.48;;;4.47;;
74503;SDS011;62988;55.776;37.544;2022-08-19T00:24:59;11.50;;;5.15;;
74503;SDS011;62988;55.776;37.544;2022-08-19T00:27:25;12.27;;;4.32;;
74503;SDS011;62988;55.776;37.544;2022-08-19T00:29:50;9.95;;;4.45;;
74503;SDS011;62988;55.776;37.544;2022-08-19T00:32:16;9.85;;;4.40;;
74503;SDS011;62988;55.776;37.544;2022-08-19T00:34:42;7.03;;;4.65;;
74503;SDS011;62988;55.776;37.544;2022-08-19T00:37:08;11.13;;;4.70;;
74503;SDS011;62988;55.776;37.544;2022-08-19T00:39:34;25.90;;;5.38;;
74503;SDS011;62988;55.776;37.544;2022-08-19T00:42:00;13.98;;;5.25;;
74503;SDS011;62988;55.776;37.544;2022-08-19T00:44:27;12.88;;;4.95;;
74503;SDS011;62988;55.776;37.544;2022-08-19T00:46:54;11.00;;;5.82;;
74503;SDS011;62988;55.776;37.544;2022-08-19T00:49:22;10.95;;;5.78;;
74503;SDS011;62988;55.776;37.544;2022-08-19T00:51:55;10.32;;;5.47;;
74503;SDS011;62988;55.776;37.544;2022-08-19T00:54:26;11.30;;;5.00;;
74503;SDS011;62988;55.776;37.544;2022-08-19T00:56:52;14.13;;;5.72;;
74503;SDS011;62988;55.776;37.544;2022-08-19T00:59:18;15.15;;;5.97;;
74503;SDS011;62988;55.776;37.544;2022-08-19T01:01:45;16.20;;;5.55;;
74503;SDS011;62988;55.776;37.544;2022-08-19T01:04:11;8.95;;;5.13;;
74503;SDS011;62988;55.776;37.544;2022-08-19T01:06:37;10.75;;;5.47;;
74503;SDS011;62988;55.776;37.544;2022-08-19T01:09:05;11.40;;;5.63;;
74503;SDS011;62988;55.776;37.544;2022-08-19T01:11:33;13.20;;;5.63;;
74503;SDS011;62988;55.776;37.544;2022-08-19T01:14:00;11.48;;;5.40;;
74503;SDS011;62988;55.776;37.544;2022-08-19T01:16:26;14.68;;;5.88;;
74503;SDS011;62988;55.776;37.544;2022-08-19T01:18:54;10.55;;;5.65;;
74503;SDS011;62988;55.776;37.544;2022-08-19T01:21:22;9.20;;;4.80;;
74503;SDS011;62988;55.776;37.544;2022-08-19T01:23:57;16.13;;;6.10;;
74503;SDS011;62988;55.776;37.544;2022-08-19T01:26:23;13.35;;;5.80;;
74503;SDS011;62988;55.776;37.544;2022-08-19T01:28:50;10.48;;;5.50;;
74503;SDS011;62988;55.776;37.544;2022-08-19T01:31:20;12.40;;;5.97;;
74503;SDS011;62988;55.776;37.544;2022-08-19T01:33:48;15.82;;;5.95;;
74503;SDS011;62988;55.776;37.544;2022-08-19T01:36:36;13.80;;;5.75;;
74503;SDS011;62988;55.776;37.544;2022-08-19T01:39:08;15.25;;;5.65;;
74503;SDS011;62988;55.776;37.544;2022-08-19T01:41:36;11.40;;;5.88;;
74503;SDS011;62988;55.776;37.544;2022-08-19T01:44:02;10.20;;;5.60;;
74503;SDS011;62988;55.776;37.544;2022-08-19T01:46:29;10.02;;;4.70;;
74503;SDS011;62988;55.776;37.544;2022-08-19T01:48:55;10.63;;;5.38;;
74503;SDS011;62988;55.776;37.544;2022-08-19T01:51:21;9.73;;;5.38;;
74503;SDS011;62988;55.776;37.544;2022-08-19T01:53:51;14.90;;;5.30;;
74503;SDS011;62988;55.776;37.544;2022-08-19T01:56:18;13.07;;;5.00;;
74503;SDS011;62988;55.776;37.544;2022-08-19T01:58:54;15.98;;;6.00;;
74503;SDS011;62988;55.776;37.544;2022-08-19T02:01:23;12.23;;;5.60;;
74503;SDS011;62988;55.776;37.544;2022-08-19T02:03:49;11.00;;;5.07;;
74503;SDS011;62988;55.776;37.544;2022-08-19T02:06:18;10.35;;;5.55;;
74503;SDS011;62988;55.776;37.544;2022-08-19T02:08:43;13.70;;;5.20;;
74503;SDS011;62988;55.776;37.544;2022-08-19T02:11:24;10.57;;;5.75;;
74503;SDS011;62988;55.776;37.544;2022-08-19T02:13:53;10.32;;;5.13;;
74503;SDS011;62988;55.776;37.544;2022-08-19T02:16:19;9.95;;;4.85;;
74503;SDS011;62988;55.776;37.544;2022-08-19T02:18:46;10.25;;;5.28;;
74503;SDS011;62988;55.776;37.544;2022-08-19T02:21:13;12.07;;;5.57;;
74503;SDS011;62988;55.776;37.544;2022-08-19T02:23:41;12.27;;;5.30;;
74503;SDS011;62988;55.776;37.544;2022-08-19T02:26:07;12.15;;;4.88;;
74503;SDS011;62988;55.776;37.544;2022-08-19T02:28:32;13.68;;;5.20;;
74503;SDS011;62988;55.776;37.544;2022-08-19T02:30:58;9.27;;;5.20;;
74503;SDS011;62988;55.776;37.544;2022-08-19T02:33:25;11.82;;;5.03;;
74503;SDS011;62988;55.776;37.544;2022-08-19T02:35:51;12.52;;;5.13;;
74503;SDS011;62988;55.776;37.544;2022-08-19T02:38:17;16.17;;;5.10;;
74503;SDS011;62988;55.776;37.544;2022-08-19T02:40:56;10.27;;;4.65;;
74503;SDS011;62988;55.776;37.544;2022-08-19T02:43:25;12.55;;;5.20;;
74503;SDS011;62988;55.776;37.544;2022-08-19T02:45:53;12.60;;;5.25;;
74503;SDS011;62988;55.776;37.544;2022-08-19T02:48:19;10.13;;;5.47;;
74503;SDS011;62988;55.776;37.544;2022-08-19T02:50:46;9.10;;;4.80;;
74503;SDS011;62988;55.776;37.544;2022-08-19T02:53:12;9.85;;;4.55;;
74503;SDS011;62988;55.776;37.544;2022-08-19T02:55:47;9.77;;;5.10;;
74503;SDS011;62988;55.776;37.544;2022-08-19T02:58:14;11.30;;;5.05;;
74503;SDS011;62988;55.776;37.544;2022-08-19T03:00:41;9.20;;;4.72;;
74503;SDS011;62988;55.776;37.544;2022-08-19T03:03:11;11.63;;;4.72;;
74503;SDS011;62988;55.776;37.544;2022-08-19T03:05:38;8.25;;;5.05;;
74503;SDS011;62988;55.776;37.544;2022-08-19T03:08:05;13.02;;;4.05;;
74503;SDS011;62988;55.776;37.544;2022-08-19T03:10:31;10.95;;;5.00;;
74503;SDS011;62988;55.776;37.544;2022-08-19T03:12:57;11.15;;;5.07;;
74503;SDS011;62988;55.776;37.544;2022-08-19T03:15:23;13.48;;;4.88;;
74503;SDS011;62988;55.776;37.544;2022-08-19T03:17:49;11.30;;;5.30;;
74503;SDS011;62988;55.776;37.544;2022-08-19T03:20:14;12.88;;;5.10;;
74503;SDS011;62988;55.776;37.544;2022-08-19T03:22:40;7.15;;;4.85;;
74503;SDS011;62988;55.776;37.544;2022-08-19T03:25:05;14.85;;;5.40;;
74503;SDS011;62988;55.776;37.544;2022-08-19T03:27:31;11.93;;;4.88;;
74503;SDS011;62988;55.776;37.544;2022-08-19T03:29:56;12.50;;;5.40;;
74503;SDS011;62988;55.776;37.544;2022-08-19T03:32:22;8.88;;;4.93;;
74503;SDS011;62988;55.776;37.544;2022-08-19T03:34:47;11.52;;;5.00;;
74503;SDS011;62988;55.776;37.544;2022-08-19T03:37:14;14.32;;;5.70;;
74503;SDS011;62988;55.776;37.544;2022-08-19T03:39:40;10.65;;;5.45;;
74503;SDS011;62988;55.776;37.544;2022-08-19T03:42:07;11.05;;;5.00;;
74503;SDS011;62988;55.776;37.544;2022-08-19T03:44:33;16.05;;;5.22;;
74503;SDS011;62988;55.776;37.544;2022-08-19T03:46:59;9.38;;;5.07;;
74503;SDS011;62988;55.776;37.544;2022-08-19T03:49:26;13.73;;;5.10;;
74503;SDS011;62988;55.776;37.544;2022-08-19T03:51:54;11.10;;;4.72;;
74503;SDS011;62988;55.776;37.544;2022-08-19T03:54:21;14.63;;;5.18;;
74503;SDS011;62988;55.776;37.544;2022-08-19T03:56:49;16.33;;;5.13;;
74503;SDS011;62988;55.776;37.544;2022-08-19T03:59:34;12.45;;;5.00;;
74503;SDS011;62988;55.776;37.544;2022-08-19T04:02:02;16.65;;;5.55;;
74503;SDS011;62988;55.776;37.544;2022-08-19T04:04:34;9.15;;;4.82;;
74503;SDS011;62988;55.776;37.544;2022-08-19T04:07:00;11.48;;;5.75;;
74503;SDS011;62988;55.776;37.544;2022-08-19T04:09:26;14.32;;;5.38;;
74503;SDS011;62988;55.776;37.544;2022-08-19T04:11:54;8.50;;;5.38;;
74503;SDS011;62988;55.776;37.544;2022-08-19T04:16:49;14.98;;;5.50;;
74503;SDS011;62988;55.776;37.544;2022-08-19T04:19:15;16.38;;;5.20;;
74503;SDS011;62988;55.776;37.544;2022-08-19T04:21:46;14.18;;;5.30;;
74503;SDS011;62988;55.776;37.544;2022-08-19T04:24:17;14.13;;;6.05;;
74503;SDS011;62988;55.776;37.544;2022-08-19T04:26:44;15.13;;;5.20;;
74503;SDS011;62988;55.776;37.544;2022-08-19T04:29:14;11.68;;;5.30;;
74503;SDS011;62988;55.776;37.544;2022-08-19T04:31:42;12.13;;;5.28;;
74503;SDS011;62988;55.776;37.544;2022-08-19T04:34:10;8.73;;;4.80;;
74503;SDS011;62988;55.776;37.544;2022-08-19T04:36:37;13.02;;;5.07;;
74503;SDS011;62988;55.776;37.544;2022-08-19T04:39:06;11.63;;;5.15;;
74503;SDS011;62988;55.776;37.544;2022-08-19T04:41:33;9.38;;;5.00;;
74503;SDS011;62988;55.776;37.544;2022-08-19T04:44:18;12.07;;;5.32;;
74503;SDS011;62988;55.776;37.544;2022-08-19T04:46:45;9.98;;;5.10;;
74503;SDS011;62988;55.776;37.544;2022-08-19T04:49:13;12.07;;;4.80;;
74503;SDS011;62988;55.776;37.544;2022-08-19T04:51:41;13.38;;;4.88;;
74503;SDS011;62988;55.776;37.544;2022-08-19T04:54:07;11.70;;;4.43;;
74503;SDS011;62988;55.776;37.544;2022-08-19T04:56:32;9.07;;;4.60;;
74503;SDS011;62988;55.776;37.544;2022-08-19T04:58:59;11.82;;;5.20;;
74503;SDS011;62988;55.776;37.544;2022-08-19T05:01:28;10.18;;;5.00;;
74503;SDS011;62988;55.776;37.544;2022-08-19T05:03:55;10.68;;;5.57;;
74503;SDS011;62988;55.776;37.544;2022-08-19T05:06:22;12.63;;;4.85;;
74503;SDS011;62988;55.776;37.544;2022-08-19T05:08:50;12.50;;;5.07;;
74503;SDS011;62988;55.776;37.544;2022-08-19T05:11:17;11.02;;;4.38;;
74503;SDS011;62988;55.776;37.544;2022-08-19T05:13:47;12.23;;;4.72;;
74503;SDS011;62988;55.776;37.544;2022-08-19T05:16:14;14.70;;;4.90;;
74503;SDS011;62988;55.776;37.544;2022-08-19T05:18:42;11.20;;;4.30;;
74503;SDS011;62988;55.776;37.544;2022-08-19T05:21:26;10.25;;;4.82;;
74503;SDS011;62988;55.776;37.544;2022-08-19T05:24:11;9.40;;;4.20;;
74503;SDS011;62988;55.776;37.544;2022-08-19T05:26:41;14.10;;;3.95;;
74503;SDS011;62988;55.776;37.544;2022-08-19T05:29:11;13.05;;;4.45;;
74503;SDS011;62988;55.776;37.544;2022-08-19T05:31:39;11.35;;;4.63;;
74503;SDS011;62988;55.776;37.544;2022-08-19T05:34:06;11.63;;;4.32;;
74503;SDS011;62988;55.776;37.544;2022-08-19T05:36:35;13.80;;;4.03;;
74503;SDS011;62988;55.776;37.544;2022-08-19T05:39:06;9.48;;;4.50;;
74503;SDS011;62988;55.776;37.544;2022-08-19T05:41:33;14.43;;;4.97;;
74503;SDS011;62988;55.776;37.544;2022-08-19T05:44:03;10.27;;;4.45;;
74503;SDS011;62988;55.776;37.544;2022-08-19T05:46:31;13.25;;;4.93;;
74503;SDS011;62988;55.776;37.544;2022-08-19T05:48:57;11.20;;;5.20;;
74503;SDS011;62988;55.776;37.544;2022-08-19T05:51:24;13.93;;;5.35;;
74503;SDS011;62988;55.776;37.544;2022-08-19T05:53:50;11.23;;;4.70;;
74503;SDS011;62988;55.776;37.544;2022-08-19T05:56:17;13.90;;;4.22;;
74503;SDS011;62988;55.776;37.544;2022-08-19T05:58:44;10.43;;;4.45;;
74503;SDS011;62988;55.776;37.544;2022-08-19T06:01:15;13.85;;;4.57;;
74503;SDS011;62988;55.776;37.544;2022-08-19T06:03:42;8.50;;;4.35;;
74503;SDS011;62988;55.776;37.544;2022-08-19T06:06:09;11.43;;;4.95;;
74503;SDS011;62988;55.776;37.544;2022-08-19T06:08:36;15.40;;;4.63;;
74503;SDS011;62988;55.776;37.544;2022-08-19T06:11:22;10.32;;;4.70;;
74503;SDS011;62988;55.776;37.544;2022-08-19T06:13:57;9.63;;;4.47;;
74503;SDS011;62988;55.776;37.544;2022-08-19T06:16:26;10.70;;;4.10;;
74503;SDS011;62988;55.776;37.544;2022-08-19T06:18:52;12.23;;;4.90;;
74503;SDS011;62988;55.776;37.544;2022-08-19T06:21:23;9.45;;;4.82;;
74503;SDS011;62988;55.776;37.544;2022-08-19T06:23:51;12.77;;;4.68;;
74503;SDS011;62988;55.776;37.544;2022-08-19T06:26:17;11.73;;;4.70;;
74503;SDS011;62988;55.776;37.544;2022-08-19T06:28:44;8.90;;;4.10;;
74503;SDS011;62988;55.776;37.544;2022-08-19T06:31:11;10.27;;;4.35;;
74503;SDS011;62988;55.776;37.544;2022-08-19T06:33:41;16.08;;;5.05;;
74503;SDS011;62988;55.776;37.544;2022-08-19T06:36:16;24.75;;;6.90;;
74503;SDS011;62988;55.776;37.544;2022-08-19T06:38:42;8.88;;;4.57;;
74503;SDS011;62988;55.776;37.544;2022-08-19T06:41:08;14.20;;;4.78;;
74503;SDS011;62988;55.776;37.544;2022-08-19T06:43:34;10.18;;;4.13;;
74503;SDS011;62988;55.776;37.544;2022-08-19T06:46:01;9.60;;;4.20;;
74503;SDS011;62988;55.776;37.544;2022-08-19T06:48:28;11.60;;;4.32;;
74503;SDS011;62988;55.776;37.544;2022-08-19T06:50:54;13.80;;;4.65;;
74503;SDS011;62988;55.776;37.544;2022-08-19T06:53:20;8.95;;;4.38;;
74503;SDS011;62988;55.776;37.544;2022-08-19T06:55:46;8.90;;;4.18;;
74503;SDS011;62988;55.776;37.544;2022-08-19T06:58:12;12.30;;;4.35;;
74503;SDS011;62988;55.776;37.544;2022-08-19T07:00:39;11.77;;;4.63;;
74503;SDS011;62988;55.776;37.544;2022-08-19T07:03:05;11.43;;;5.20;;
74503;SDS011;62988;55.776;37.544;2022-08-19T07:05:30;8.73;;;4.20;;
74503;SDS011;62988;55.776;37.544;2022-08-19T07:07:56;12.38;;;4.82;;
74503;SDS011;62988;55.776;37.544;2022-08-19T07:10:22;10.20;;;4.80;;
74503;SDS011;62988;55.776;37.544;2022-08-19T07:12:47;7.40;;;4.78;;
74503;SDS011;62988;55.776;37.544;2022-08-19T07:15:15;13.90;;;4.72;;
74503;SDS011;62988;55.776;37.544;2022-08-19T07:17:41;16.02;;;5.13;;
74503;SDS011;62988;55.776;37.544;2022-08-19T07:20:09;10.63;;;4.70;;
74503;SDS011;62988;55.776;37.544;2022-08-19T07:22:38;9.55;;;4.25;;
74503;SDS011;62988;55.776;37.544;2022-08-19T07:25:05;13.57;;;4.13;;
74503;SDS011;62988;55.776;37.544;2022-08-19T07:27:33;11.52;;;4.63;;
74503;SDS011;62988;55.776;37.544;2022-08-19T07:29:59;13.93;;;4.32;;
74503;SDS011;62988;55.776;37.544;2022-08-19T07:32:25;8.02;;;4.13;;
74503;SDS011;62988;55.776;37.544;2022-08-19T07:34:55;12.98;;;3.75;;
74503;SDS011;62988;55.776;37.544;2022-08-19T07:37:21;11.75;;;4.03;;
74503;SDS011;62988;55.776;37.544;2022-08-19T07:39:47;8.25;;;3.55;;
74503;SDS011;62988;55.776;37.544;2022-08-19T07:42:13;13.32;;;3.97;;
74503;SDS011;62988;55.776;37.544;2022-08-19T07:44:39;8.00;;;3.78;;
74503;SDS011;62988;55.776;37.544;2022-08-19T07:47:06;9.20;;;3.90;;
74503;SDS011;62988;55.776;37.544;2022-08-19T07:49:32;9.65;;;4.30;;
74503;SDS011;62988;55.776;37.544;2022-08-19T07:52:00;12.23;;;4.22;;
74503;SDS011;62988;55.776;37.544;2022-08-19T07:54:29;11.18;;;3.63;;
74503;SDS011;62988;55.776;37.544;2022-08-19T07:56:56;8.50;;;3.83;;
74503;SDS011;62988;55.776;37.544;2022-08-19T07:59:23;13.60;;;4.35;;
74503;SDS011;62988;55.776;37.544;2022-08-19T08:01:49;12.77;;;4.75;;
74503;SDS011;62988;55.776;37.544;2022-08-19T08:04:16;10.48;;;3.58;;
74503;SDS011;62988;55.776;37.544;2022-08-19T08:07:01;18.73;;;4.65;;
74503;SDS011;62988;55.776;37.544;2022-08-19T08:09:46;8.80;;;3.95;;
74503;SDS011;62988;55.776;37.544;2022-08-19T08:12:16;6.55;;;2.75;;
74503;SDS011;62988;55.776;37.544;2022-08-19T08:14:45;10.90;;;3.00;;
74503;SDS011;62988;55.776;37.544;2022-08-19T08:17:13;9.07;;;4.00;;
74503;SDS011;62988;55.776;37.544;2022-08-19T08:19:43;11.18;;;4.30;;
74503;SDS011;62988;55.776;37.544;2022-08-19T08:22:11;9.93;;;3.72;;
74503;SDS011;62988;55.776;37.544;2022-08-19T08:25:12;14.90;;;3.95;;
74503;SDS011;62988;55.776;37.544;2022-08-19T08:27:41;10.68;;;3.97;;
74503;SDS011;62988;55.776;37.544;2022-08-19T08:30:15;11.90;;;4.13;;
74503;SDS011;62988;55.776;37.544;2022-08-19T08:32:43;15.50;;;4.55;;
74503;SDS011;62988;55.776;37.544;2022-08-19T08:35:10;9.35;;;3.80;;
74503;SDS011;62988;55.776;37.544;2022-08-19T08:37:39;10.95;;;4.85;;
74503;SDS011;62988;55.776;37.544;2022-08-19T08:40:26;8.23;;;4.45;;
74503;SDS011;62988;55.776;37.544;2022-08-19T08:45:32;12.07;;;4.30;;
74503;SDS011;62988;55.776;37.544;2022-08-19T08:48:02;13.90;;;4.57;;
74503;SDS011;62988;55.776;37.544;2022-08-19T08:50:40;11.30;;;4.13;;
74503;SDS011;62988;55.776;37.544;2022-08-19T08:53:09;10.38;;;4.65;;
74503;SDS011;62988;55.776;37.544;2022-08-19T08:55:37;18.45;;;4.90;;
74503;SDS011;62988;55.776;37.544;2022-08-19T08:58:12;12.00;;;4.82;;
74503;SDS011;62988;55.776;37.544;2022-08-19T09:00:46;11.20;;;4.55;;
74503;SDS011;62988;55.776;37.544;2022-08-19T09:05:50;8.35;;;4.15;;
74503;SDS011;62988;55.776;37.544;2022-08-19T09:08:39;10.40;;;4.60;;
74503;SDS011;62988;55.776;37.544;2022-08-19T09:11:30;8.15;;;3.53;;
74503;SDS011;62988;55.776;37.544;2022-08-19T09:14:20;7.47;;;3.88;;
74503;SDS011;62988;55.776;37.544;2022-08-19T09:16:48;18.52;;;3.97;;
74503;SDS011;62988;55.776;37.544;2022-08-19T09:19:14;8.65;;;4.07;;
74503;SDS011;62988;55.776;37.544;2022-08-19T09:21:42;8.40;;;3.28;;
74503;SDS011;62988;55.776;37.544;2022-08-19T09:24:08;7.45;;;3.72;;
74503;SDS011;62988;55.776;37.544;2022-08-19T09:26:33;6.57;;;3.95;;
74503;SDS011;62988;55.776;37.544;2022-08-19T09:28:59;12.38;;;4.15;;
74503;SDS011;62988;55.776;37.544;2022-08-19T09:31:28;8.95;;;3.60;;
74503;SDS011;62988;55.776;37.544;2022-08-19T09:33:55;9.35;;;4.25;;
74503;SDS011;62988;55.776;37.544;2022-08-19T09:36:23;8.88;;;4.00;;
74503;SDS011;62988;55.776;37.544;2022-08-19T09:38:51;13.40;;;3.58;;
74503;SDS011;62988;55.776;37.544;2022-08-19T09:41:20;12.63;;;4.65;;
74503;SDS011;62988;55.776;37.544;2022-08-19T09:43:48;13.35;;;4.57;;
74503;SDS011;62988;55.776;37.544;2022-08-19T09:46:21;12.88;;;4.30;;
74503;SDS011;62988;55.776;37.544;2022-08-19T09:48:48;10.63;;;4.05;;
74503;SDS011;62988;55.776;37.544;2022-08-19T09:51:17;6.97;;;4.00;;
74503;SDS011;62988;55.776;37.544;2022-08-19T09:53:46;10.15;;;3.58;;
74503;SDS011;62988;55.776;37.544;2022-08-19T09:56:15;10.48;;;4.10;;
74503;SDS011;62988;55.776;37.544;2022-08-19T09:58:41;9.60;;;3.70;;
74503;SDS011;62988;55.776;37.544;2022-08-19T10:01:07;9.45;;;4.30;;
74503;SDS011;62988;55.776;37.544;2022-08-19T10:03:34;10.20;;;4.15;;
74503;SDS011;62988;55.776;37.544;2022-08-19T10:06:02;9.07;;;4.72;;
74503;SDS011;62988;55.776;37.544;2022-08-19T10:08:32;7.45;;;3.60;;
74503;SDS011;62988;55.776;37.544;2022-08-19T10:11:00;9.60;;;3.70;;
74503;SDS011;62988;55.776;37.544;2022-08-19T10:13:27;10.93;;;3.72;;
74503;SDS011;62988;55.776;37.544;2022-08-19T10:15:55;11.27;;;3.53;;
74503;SDS011;62988;55.776;37.544;2022-08-19T10:18:27;10.18;;;3.75;;
74503;SDS011;62988;55.776;37.544;2022-08-19T10:21:01;11.48;;;3.85;;
74503;SDS011;62988;55.776;37.544;2022-08-19T10:23:32;11.50;;;4.20;;
74503;SDS011;62988;55.776;37.544;2022-08-19T10:25:59;12.70;;;4.50;;
74503;SDS011;62988;55.776;37.544;2022-08-19T10:28:25;16.15;;;4.20;;
74503;SDS011;62988;55.776;37.544;2022-08-19T10:30:51;8.77;;;4.40;;
74503;SDS011;62988;55.776;37.544;2022-08-19T10:33:17;11.90;;;4.30;;
74503;SDS011;62988;55.776;37.544;2022-08-19T10:35:42;11.40;;;4.10;;
74503;SDS011;62988;55.776;37.544;2022-08-19T10:38:08;9.27;;;4.18;;
74503;SDS011;62988;55.776;37.544;2022-08-19T10:40:33;9.35;;;4.53;;
74503;SDS011;62988;55.776;37.544;2022-08-19T10:42:59;16.17;;;4.72;;
74503;SDS011;62988;55.776;37.544;2022-08-19T10:45:25;17.95;;;4.20;;
74503;SDS011;62988;55.776;37.544;2022-08-19T10:47:54;11.27;;;4.45;;
74503;SDS011;62988;55.776;37.544;2022-08-19T10:50:20;11.80;;;3.42;;
74503;SDS011;62988;55.776;37.544;2022-08-19T10:53:06;16.48;;;3.20;;
74503;SDS011;62988;55.776;37.544;2022-08-19T10:55:33;10.55;;;3.05;;
74503;SDS011;62988;55.776;37.544;2022-08-19T10:58:19;9.20;;;3.30;;
74503;SDS011;62988;55.776;37.544;2022-08-19T11:00:52;8.15;;;3.05;;
74503;SDS011;62988;55.776;37.544;2022-08-19T11:03:19;10.52;;;2.75;;
74503;SDS011;62988;55.776;37.544;2022-08-19T11:05:45;3.90;;;2.40;;
74503;SDS011;62988;55.776;37.544;2022-08-19T11:08:10;9.98;;;2.30;;
74503;SDS011;62988;55.776;37.544;2022-08-19T11:10:37;11.25;;;2.72;;
74503;SDS011;62988;55.776;37.544;2022-08-19T11:13:07;13.50;;;2.33;;
74503;SDS011;62988;55.776;37.544;2022-08-19T11:15:32;31.88;;;3.67;;
74503;SDS011;62988;55.776;37.544;2022-08-19T11:17:58;7.05;;;2.63;;
74503;SDS011;62988;55.776;37.544;2022-08-19T11:20:24;13.57;;;3.20;;
74503;SDS011;62988;55.776;37.544;2022-08-19T11:22:51;14.98;;;3.00;;
74503;SDS011;62988;55.776;37.544;2022-08-19T11:25:18;8.38;;;2.47;;
74503;SDS011;62988;55.776;37.544;2022-08-19T11:27:44;6.55;;;2.40;;
74503;SDS011;62988;55.776;37.544;2022-08-19T11:30:11;6.93;;;2.03;;
74503;SDS011;62988;55.776;37.544;2022-08-19T11:32:39;5.88;;;2.50;;
74503;SDS011;62988;55.776;37.544;2022-08-19T11:35:05;9.38;;;2.75;;
74503;SDS011;62988;55.776;37.544;2022-08-19T11:37:31;8.27;;;2.00;;
74503;SDS011;62988;55.776;37.544;2022-08-19T11:40:03;8.10;;;2.70;;
74503;SDS011;62988;55.776;37.544;2022-08-19T11:42:30;10.95;;;3.38;;
74503;SDS011;62988;55.776;37.544;2022-08-19T11:45:14;7.70;;;1.92;;
74503;SDS011;62988;55.776;37.544;2022-08-19T11:47:39;7.95;;;2.42;;
74503;SDS011;62988;55.776;37.544;2022-08-19T11:50:05;9.45;;;2.60;;
74503;SDS011;62988;55.776;37.544;2022-08-19T11:52:31;8.88;;;2.42;;
74503;SDS011;62988;55.776;37.544;2022-08-19T11:54:56;5.85;;;2.47;;
74503;SDS011;62988;55.776;37.544;2022-08-19T11:57:22;9.65;;;2.95;;
74503;SDS011;62988;55.776;37.544;2022-08-19T11:59:48;10.55;;;2.70;;
74503;SDS011;62988;55.776;37.544;2022-08-19T12:02:15;9.30;;;3.58;;
74503;SDS011;62988;55.776;37.544;2022-08-19T12:04:40;6.47;;;2.40;;
74503;SDS011;62988;55.776;37.544;2022-08-19T12:07:06;6.57;;;2.75;;
74503;SDS011;62988;55.776;37.544;2022-08-19T12:09:31;11.20;;;2.45;;
74503;SDS011;62988;55.776;37.544;2022-08-19T12:12:00;5.95;;;2.60;;
74503;SDS011;62988;55.776;37.544;2022-08-19T12:14:27;7.53;;;2.88;;
74503;SDS011;62988;55.776;37.544;2022-08-19T12:16:55;11.52;;;4.07;;
74503;SDS011;62988;55.776;37.544;2022-08-19T12:19:21;5.57;;;2.90;;
74503;SDS011;62988;55.776;37.544;2022-08-19T12:21:46;5.93;;;2.78;;
74503;SDS011;62988;55.776;37.544;2022-08-19T12:24:12;8.98;;;2.45;;
74503;SDS011;62988;55.776;37.544;2022-08-19T12:26:38;5.15;;;2.70;;
74503;SDS011;62988;55.776;37.544;2022-08-19T12:29:04;6.78;;;2.40;;
74503;SDS011;62988;55.776;37.544;2022-08-19T12:31:30;7.35;;;3.20;;
74503;SDS011;62988;55.776;37.544;2022-08-19T12:33:55;9.95;;;2.97;;
74503;SDS011;62988;55.776;37.544;2022-08-19T12:36:21;6.50;;;2.55;;
74503;SDS011;62988;55.776;37.544;2022-08-19T12:38:48;16.05;;;3.28;;
74503;SDS011;62988;55.776;37.544;2022-08-19T12:41:14;6.97;;;3.00;;
74503;SDS011;62988;55.776;37.544;2022-08-19T12:43:43;9.60;;;3.63;;
74503;SDS011;62988;55.776;37.544;2022-08-19T12:46:09;5.55;;;3.08;;
74503;SDS011;62988;55.776;37.544;2022-08-19T12:48:35;5.65;;;2.78;;
74503;SDS011;62988;55.776;37.544;2022-08-19T12:51:05;7.53;;;3.33;;
74503;SDS011;62988;55.776;37.544;2022-08-19T12:53:32;6.60;;;2.40;;
74503;SDS011;62988;55.776;37.544;2022-08-19T12:55:58;10.75;;;3.03;;
74503;SDS011;62988;55.776;37.544;2022-08-19T12:58:25;6.63;;;3.22;;
74503;SDS011;62988;55.776;37.544;2022-08-19T13:00:51;9.57;;;3.00;;
74503;SDS011;62988;55.776;37.544;2022-08-19T13:03:17;8.57;;;3.40;;
74503;SDS011;62988;55.776;37.544;2022-08-19T13:05:42;11.70;;;3.00;;
74503;SDS011;62988;55.776;37.544;2022-08-19T13:08:08;9.77;;;3.03;;
74503;SDS011;62988;55.776;37.544;2022-08-19T13:10:34;13.63;;;3.28;;
74503;SDS011;62988;55.776;37.544;2022-08-19T13:13:01;8.23;;;3.03;;
74503;SDS011;62988;55.776;37.544;2022-08-19T13:15:32;6.97;;;3.17;;
74503;SDS011;62988;55.776;37.544;2022-08-19T13:17:59;10.32;;;3.60;;
74503;SDS011;62988;55.776;37.544;2022-08-19T13:20:24;12.55;;;2.90;;
74503;SDS011;62988;55.776;37.544;2022-08-19T13:22:50;8.38;;;2.92;;
74503;SDS011;62988;55.776;37.544;2022-08-19T13:25:17;16.45;;;3.25;;
74503;SDS011;62988;55.776;37.544;2022-08-19T13:27:44;12.77;;;3.10;;
74503;SDS011;62988;55.776;37.544;2022-08-19T13:30:11;10.23;;;3.33;;
74503;SDS011;62988;55.776;37.544;2022-08-19T13:32:56;4.80;;;3.47;;
74503;SDS011;62988;55.776;37.544;2022-08-19T13:35:48;7.78;;;2.95;;
74503;SDS011;62988;55.776;37.544;2022-08-19T13:38:16;10.45;;;3.80;;
74503;SDS011;62988;55.776;37.544;2022-08-19T13:40:45;8.30;;;2.92;;
74503;SDS011;62988;55.776;37.544;2022-08-19T13:43:11;9.45;;;3.20;;
74503;SDS011;62988;55.776;37.544;2022-08-19T13:45:37;7.13;;;3.42;;
74503;SDS011;62988;55.776;37.544;2022-08-19T13:48:03;8.80;;;3.13;;
74503;SDS011;62988;55.776;37.544;2022-08-19T13:50:33;9.27;;;3.03;;
74503;SDS011;62988;55.776;37.544;2022-08-19T13:53:10;6.32;;;3.75;;
74503;SDS011;62988;55.776;37.544;2022-08-19T13:55:37;10.05;;;3.78;;
74503;SDS011;62988;55.776;37.544;2022-08-19T13:58:03;8.30;;;4.07;;
74503;SDS011;62988;55.776;37.544;2022-08-19T14:00:32;8.23;;;3.95;;
74503;SDS011;62988;55.776;37.544;2022-08-19T14:02:59;8.52;;;3.50;;
74503;SDS011;62988;55.776;37.544;2022-08-19T14:05:25;7.80;;;3.78;;
74503;SDS011;62988;55.776;37.544;2022-08-19T14:07:52;8.50;;;3.50;;
74503;SDS011;62988;55.776;37.544;2022-08-19T14:10:19;5.47;;;3.80;;
74503;SDS011;62988;55.776;37.544;2022-08-19T14:12:45;8.68;;;3.35;;
74503;SDS011;62988;55.776;37.544;2022-08-19T14:15:13;11.90;;;3.63;;
74503;SDS011;62988;55.776;37.544;2022-08-19T14:17:40;10.82;;;4.65;;
74503;SDS011;62988;55.776;37.544;2022-08-19T14:20:08;9.93;;;3.60;;
74503;SDS011;62988;55.776;37.544;2022-08-19T14:22:36;8.68;;;4.15;;
74503;SDS011;62988;55.776;37.544;2022-08-19T14:25:03;14.55;;;3.95;;
74503;SDS011;62988;55.776;37.544;2022-08-19T14:27:40;9.68;;;4.38;;
74503;SDS011;62988;55.776;37.544;2022-08-19T14:30:07;13.07;;;4.40;;
74503;SDS011;62988;55.776;37.544;2022-08-19T14:32:35;6.57;;;3.80;;
74503;SDS011;62988;55.776;37.544;2022-08-19T14:35:01;8.95;;;3.47;;
74503;SDS011;62988;55.776;37.544;2022-08-19T14:37:28;12.13;;;4.28;;
74503;SDS011;62988;55.776;37.544;2022-08-19T14:39:53;12.18;;;4.53;;